Decoded Metar for LFKB (BASTIA in CORSE ISL.) (IATA:BIA) | Meteo·Mobile Aviation Weather
aviador You're here:

LFKB Decoded Metar

BASTIA in CORSE ISL.
Report Time2019-10-19 22:30:00
UTC Time2019-10-19 22:51:05
Flight Rules mvfr MVFR
Wind140° at 11 kt
W.Decomp.*RWY 16: 10.2 kt HW 4.1 kt LCW
Visibility9999 m
Phenomena:N/A
Clouds:Few 015 Hf
Expected CloudBase > 800 ft AGL from Temp-Dew spread
Ceiling1,000 ft
Temp20°C (ISA +5)
Dew Point18°C (88% RH)
AAT18.8°C
QNH1015 hPa
Density Alt840 ft
Elevation39 ft
Report Wrong Elevation
Raw Report
LFKB 192230Z AUTO 14011KT 9999 FEW015 20/18 Q1015 TEMPO BKN010=

Extra information for LFKB:More info

Metar Taf Metar & Taf Last 4 Metars F.Rules Stats Wind Profile Meteogram Temp Stats Airport Information Weather charts Add Link Nearby VenuesMetar ALERT Operation Metar Decoded Social comments